Time;durP1;ratioP1;P1;durP2;ratioP2;P2;SDS_P1;SDS_P2;PMS_P1;PMS_P2;Temp;Humidity;BMP_temperature;BMP_pressure;BME280_temperature;BME280_humidity;BME280_pressure;Samples;Min_cycle;Max_cycle;Signal;HPM_P1;HPM_P2
2021/08/19 00:01:35;;;;;;;21.10;16.45;;;17.30;99.90;;;;;;5010424;28;20041;-67
2021/08/19 00:04:00;;;;;;;23.27;16.88;;;17.30;99.90;;;;;;5006988;28;20132;-67
2021/08/19 00:06:26;;;;;;;27.58;18.05;;;17.30;99.90;;;;;;5010901;28;20109;-67
2021/08/19 00:08:52;;;;;;;24.75;17.80;;;17.30;99.90;;;;;;5015062;28;20037;-66
2021/08/19 00:11:17;;;;;;;24.67;17.35;;;17.30;99.90;;;;;;5000138;28;20034;-66
2021/08/19 00:13:43;;;;;;;22.38;17.63;;;17.30;99.90;;;;;;5012326;28;20823;-67
2021/08/19 00:16:09;;;;;;;26.67;19.10;;;17.40;99.90;;;;;;5011212;28;20033;-67
2021/08/19 00:18:35;;;;;;;28.70;19.55;;;17.40;99.90;;;;;;5011992;28;20030;-67
2021/08/19 00:21:01;;;;;;;26.42;18.05;;;17.30;99.90;;;;;;5006880;28;20018;-67
2021/08/19 00:23:27;;;;;;;26.27;19.27;;;17.40;99.90;;;;;;5013389;28;20029;-67
2021/08/19 00:25:52;;;;;;;24.13;19.48;;;17.30;99.90;;;;;;5005003;28;20037;-67
2021/08/19 00:28:18;;;;;;;25.77;19.17;;;17.30;99.90;;;;;;5008329;28;20058;-67
2021/08/19 00:30:43;;;;;;;31.42;20.92;;;17.40;99.90;;;;;;5007676;28;20042;-67
2021/08/19 00:33:10;;;;;;;27.15;20.63;;;17.30;99.90;;;;;;5011756;28;20080;-66
2021/08/19 00:35:36;;;;;;;27.55;20.52;;;17.40;99.90;;;;;;5007746;28;20030;-66
2021/08/19 00:38:02;;;;;;;28.35;20.60;;;17.40;99.90;;;;;;5009169;28;20041;-66
2021/08/19 00:40:28;;;;;;;30.10;20.33;;;17.40;99.90;;;;;;5009665;28;20384;-67
2021/08/19 00:42:54;;;;;;;29.67;20.60;;;17.30;99.90;;;;;;5013225;28;20026;-66
2021/08/19 00:45:21;;;;;;;26.73;20.67;;;17.30;99.90;;;;;;5011122;28;20468;-67
2021/08/19 00:47:47;;;;;;;32.72;22.23;;;17.40;99.90;;;;;;4994638;28;20030;-66
2021/08/19 00:50:13;;;;;;;33.05;21.70;;;17.30;99.90;;;;;;5006999;28;20026;-66
2021/08/19 00:52:41;;;;;;;30.90;21.60;;;17.30;99.90;;;;;;5012841;28;20499;-67
2021/08/19 00:55:08;;;;;;;28.13;20.08;;;17.30;99.90;;;;;;5005476;28;20420;-67
2021/08/19 00:57:37;;;;;;;28.35;19.60;;;17.40;99.90;;;;;;5010999;28;20476;-66
2021/08/19 01:00:03;;;;;;;27.92;20.10;;;17.40;99.90;;;;;;5006488;28;20026;-67
2021/08/19 01:02:28;;;;;;;34.47;20.73;;;17.30;99.90;;;;;;5010832;28;20061;-66
2021/08/19 01:04:54;;;;;;;29.05;20.05;;;17.40;99.90;;;;;;5008802;28;20069;-67
2021/08/19 01:07:20;;;;;;;32.95;20.50;;;17.40;99.90;;;;;;5004228;28;20022;-66
2021/08/19 01:09:45;;;;;;;32.05;20.08;;;17.40;99.90;;;;;;5011036;28;20075;-66
2021/08/19 01:12:12;;;;;;;33.55;20.45;;;17.40;99.90;;;;;;4996678;28;20087;-66
2021/08/19 01:14:40;;;;;;;31.77;21.00;;;17.40;99.90;;;;;;5007774;28;20038;-66
2021/08/19 01:17:10;;;;;;;32.85;22.15;;;17.40;99.90;;;;;;5010356;28;20030;-67
2021/08/19 01:19:38;;;;;;;35.47;21.85;;;17.40;99.90;;;;;;5012628;28;20073;-67
2021/08/19 01:22:04;;;;;;;35.78;23.20;;;17.40;99.90;;;;;;5010462;28;20037;-67
2021/08/19 01:24:29;;;;;;;32.22;22.38;;;17.40;99.90;;;;;;5012013;28;20065;-66
2021/08/19 01:26:55;;;;;;;34.85;21.92;;;17.40;99.90;;;;;;5008609;28;20515;-67
2021/08/19 01:29:21;;;;;;;43.53;23.77;;;17.40;99.90;;;;;;5008592;28;20417;-66
2021/08/19 01:32:01;;;;;;;35.92;23.30;;;17.40;99.90;;;;;;5008047;28;20034;-66
2021/08/19 01:34:28;;;;;;;31.13;22.20;;;17.40;99.90;;;;;;5010716;28;20029;-67
2021/08/19 01:36:53;;;;;;;39.65;21.30;;;17.40;99.90;;;;;;5005419;28;20038;-66
2021/08/19 01:39:19;;;;;;;34.13;21.63;;;17.40;99.90;;;;;;5008600;28;20083;-66
2021/08/19 01:41:45;;;;;;;32.15;22.17;;;17.40;99.90;;;;;;5006091;28;20041;-67
2021/08/19 01:44:10;;;;;;;32.63;20.52;;;17.40;99.90;;;;;;5010837;28;20018;-67
2021/08/19 01:46:36;;;;;;;30.98;21.77;;;17.40;99.90;;;;;;5008334;28;20045;-67
2021/08/19 01:49:04;;;;;;;35.65;23.63;;;17.40;99.90;;;;;;5010530;28;20022;-67
2021/08/19 01:51:33;;;;;;;34.00;21.40;;;17.40;99.90;;;;;;5000831;28;20018;-67
2021/08/19 01:53:59;;;;;;;30.80;21.27;;;17.40;99.90;;;;;;5011570;28;20041;-68
2021/08/19 01:56:25;;;;;;;31.20;20.73;;;17.40;99.90;;;;;;4993705;28;20022;-66
2021/08/19 01:58:53;;;;;;;31.27;22.00;;;17.40;99.90;;;;;;5011438;28;20077;-67
2021/08/19 02:01:20;;;;;;;33.08;22.48;;;17.40;99.90;;;;;;5001034;28;20381;-67
2021/08/19 02:03:47;;;;;;;39.92;24.05;;;17.30;99.90;;;;;;4999666;28;20049;-66
2021/08/19 02:06:13;;;;;;;37.25;22.67;;;17.30;99.90;;;;;;5006124;28;20053;-67
2021/08/19 02:08:38;;;;;;;31.48;22.02;;;17.30;99.90;;;;;;5009468;28;20476;-67
2021/08/19 02:11:05;;;;;;;32.97;22.70;;;17.30;99.90;;;;;;5000747;28;20034;-67
2021/08/19 02:13:31;;;;;;;32.03;22.08;;;17.30;99.90;;;;;;5008710;28;20116;-67
2021/08/19 02:15:57;;;;;;;33.35;22.42;;;17.30;99.90;;;;;;5006712;28;20121;-67
2021/08/19 02:18:22;;;;;;;37.75;23.30;;;17.30;99.90;;;;;;5008090;28;20061;-67
2021/08/19 02:20:48;;;;;;;40.47;24.52;;;17.30;99.90;;;;;;5002525;28;20477;-67
2021/08/19 02:23:13;;;;;;;34.83;23.15;;;17.30;99.90;;;;;;5024050;28;20809;-67
2021/08/19 02:25:39;;;;;;;35.55;23.10;;;17.30;99.90;;;;;;5009345;28;20029;-66
2021/08/19 02:28:05;;;;;;;35.50;22.98;;;17.30;99.90;;;;;;5011383;28;20042;-66
2021/08/19 02:30:30;;;;;;;37.83;21.70;;;17.30;99.90;;;;;;5004902;28;20086;-67
2021/08/19 02:32:56;;;;;;;34.50;22.50;;;17.30;99.90;;;;;;5009328;28;20383;-67
2021/08/19 02:35:26;;;;;;;38.58;24.42;;;17.30;99.90;;;;;;5011356;28;20543;-66
2021/08/19 02:37:52;;;;;;;32.63;22.63;;;17.30;99.90;;;;;;5007874;28;20056;-67
2021/08/19 02:40:18;;;;;;;37.63;23.23;;;17.20;99.90;;;;;;5009410;28;20101;-67
2021/08/19 02:42:44;;;;;;;35.45;23.05;;;17.30;99.90;;;;;;5008373;28;20113;-67
2021/08/19 02:45:10;;;;;;;34.60;22.00;;;17.20;99.90;;;;;;5011315;28;20034;-67
2021/08/19 02:47:36;;;;;;;35.60;22.67;;;17.20;99.90;;;;;;5008626;28;20068;-67
2021/08/19 02:50:01;;;;;;;34.92;22.42;;;17.20;99.90;;;;;;5004026;28;20034;-67
2021/08/19 02:52:27;;;;;;;34.30;23.27;;;17.20;99.90;;;;;;5002446;28;20073;-67
2021/08/19 02:54:52;;;;;;;37.45;23.73;;;17.10;99.90;;;;;;5007800;28;20030;-67
2021/08/19 02:57:18;;;;;;;41.10;24.13;;;17.10;99.90;;;;;;5004036;28;20026;-67
2021/08/19 02:59:43;;;;;;;35.03;22.90;;;17.10;99.90;;;;;;5007757;28;20104;-65
2021/08/19 03:02:09;;;;;;;40.47;23.60;;;17.00;99.90;;;;;;5022906;28;20388;-65
2021/08/19 03:04:34;;;;;;;39.35;23.05;;;17.00;99.90;;;;;;5010924;28;20041;-65
2021/08/19 03:07:00;;;;;;;40.30;22.83;;;17.00;99.90;;;;;;5009368;28;20072;-66
2021/08/19 03:09:25;;;;;;;38.15;21.88;;;17.00;99.90;;;;;;4999656;28;20038;-66
2021/08/19 03:11:51;;;;;;;36.97;22.88;;;16.90;99.90;;;;;;5001608;28;20041;-66
2021/08/19 03:14:17;;;;;;;40.70;23.42;;;16.90;99.90;;;;;;5003495;28;20042;-66
2021/08/19 03:16:43;;;;;;;40.30;22.65;;;16.90;99.90;;;;;;5001072;28;20508;-66
2021/08/19 03:19:09;;;;;;;39.83;24.00;;;16.90;99.90;;;;;;4999539;28;20022;-66
2021/08/19 03:21:36;;;;;;;44.50;25.38;;;16.90;99.90;;;;;;4998667;28;20030;-66
2021/08/19 03:24:03;;;;;;;44.67;26.33;;;16.90;99.90;;;;;;5003652;28;20080;-66
2021/08/19 03:26:29;;;;;;;43.63;25.50;;;16.90;99.90;;;;;;5011320;28;20084;-66
2021/08/19 03:28:54;;;;;;;44.08;25.13;;;16.90;99.90;;;;;;5003811;28;20030;-66
2021/08/19 03:31:20;;;;;;;52.05;24.40;;;16.90;99.90;;;;;;5000708;28;20042;-64
2021/08/19 03:33:46;;;;;;;48.30;26.65;;;16.90;99.90;;;;;;4996290;28;20105;-64
2021/08/19 03:36:12;;;;;;;49.92;27.85;;;16.90;99.90;;;;;;4991590;28;20038;-64
2021/08/19 03:38:37;;;;;;;45.22;26.77;;;16.90;99.90;;;;;;4994713;28;20073;-64
2021/08/19 03:41:03;;;;;;;46.75;25.95;;;16.90;99.90;;;;;;5009631;28;20040;-64
2021/08/19 03:43:29;;;;;;;48.10;26.83;;;16.90;99.90;;;;;;5000232;28;20374;-64
2021/08/19 03:45:54;;;;;;;49.85;26.88;;;16.90;99.90;;;;;;5008977;28;20030;-63
2021/08/19 03:48:21;;;;;;;43.28;27.30;;;16.90;99.90;;;;;;5003297;28;20029;-64
2021/08/19 03:50:47;;;;;;;49.63;27.35;;;16.90;99.90;;;;;;4999769;28;20073;-64
2021/08/19 03:53:12;;;;;;;47.47;27.30;;;16.90;99.90;;;;;;5003889;28;20392;-65
2021/08/19 03:55:38;;;;;;;52.58;29.60;;;16.90;99.90;;;;;;4992669;28;20392;-64
2021/08/19 03:58:04;;;;;;;45.20;28.77;;;16.90;99.90;;;;;;5001244;28;20072;-64
2021/08/19 04:00:29;;;;;;;49.17;29.70;;;16.90;99.90;;;;;;5007179;28;20080;-64
2021/08/19 04:02:55;;;;;;;49.47;30.17;;;16.90;99.90;;;;;;5007977;28;20109;-64
2021/08/19 04:05:21;;;;;;;50.47;29.40;;;16.90;99.90;;;;;;5007041;28;20045;-64
2021/08/19 04:07:46;;;;;;;53.30;29.38;;;16.90;99.90;;;;;;5000285;28;20038;-64
2021/08/19 04:10:12;;;;;;;49.15;29.10;;;16.90;99.90;;;;;;5005801;28;20033;-64
2021/08/19 04:12:38;;;;;;;49.83;29.45;;;16.80;99.90;;;;;;4994010;28;20096;-64
2021/08/19 04:15:06;;;;;;;51.67;30.33;;;16.80;99.90;;;;;;5005880;28;20054;-64
2021/08/19 04:17:32;;;;;;;47.05;29.52;;;16.80;99.90;;;;;;5007753;28;20065;-64
2021/08/19 04:19:58;;;;;;;51.58;30.48;;;16.80;99.90;;;;;;5007474;28;20028;-64
2021/08/19 04:22:23;;;;;;;49.97;29.67;;;16.80;99.90;;;;;;5009625;28;20037;-64
2021/08/19 04:24:51;;;;;;;51.17;30.25;;;16.80;99.90;;;;;;5002217;28;20090;-64
2021/08/19 04:27:17;;;;;;;44.92;27.88;;;16.70;99.90;;;;;;5011010;28;20026;-64
2021/08/19 04:29:42;;;;;;;55.78;30.02;;;16.80;99.90;;;;;;5003961;28;20476;-64
2021/08/19 04:32:08;;;;;;;49.70;30.85;;;16.70;99.90;;;;;;5014544;28;20041;-65
2021/08/19 04:34:33;;;;;;;44.38;28.35;;;16.80;99.90;;;;;;5007543;28;20450;-65
2021/08/19 04:36:59;;;;;;;48.60;29.50;;;16.80;99.90;;;;;;5006376;28;20037;-65
2021/08/19 04:39:24;;;;;;;46.30;28.60;;;16.80;99.90;;;;;;5005148;28;20365;-65
2021/08/19 04:41:50;;;;;;;43.63;26.38;;;16.80;99.90;;;;;;5000005;28;20026;-65
2021/08/19 04:44:17;;;;;;;40.85;27.90;;;16.70;99.90;;;;;;4995622;28;20029;-65
2021/08/19 04:46:42;;;;;;;43.63;28.52;;;16.70;99.90;;;;;;4995065;28;20023;-65
2021/08/19 04:49:08;;;;;;;46.75;27.40;;;16.70;99.90;;;;;;5009477;28;20028;-65
2021/08/19 04:51:34;;;;;;;45.55;28.05;;;16.70;99.90;;;;;;5004069;28;20034;-65
2021/08/19 04:54:01;;;;;;;47.38;28.40;;;16.70;99.90;;;;;;5007038;28;20037;-65
2021/08/19 04:56:36;;;;;;;45.85;27.48;;;16.70;99.90;;;;;;5023442;28;20026;-66
2021/08/19 04:59:03;;;;;;;44.58;28.50;;;16.70;99.90;;;;;;5004432;28;20038;-66
2021/08/19 05:01:29;;;;;;;52.95;29.08;;;16.70;99.90;;;;;;4997174;28;20030;-65
2021/08/19 05:03:55;;;;;;;43.28;26.58;;;16.70;99.90;;;;;;5013277;28;21589;-66
2021/08/19 05:06:21;;;;;;;48.30;28.25;;;16.70;99.90;;;;;;5013098;28;20037;-66
2021/08/19 05:08:46;;;;;;;43.58;27.02;;;16.70;99.90;;;;;;5012399;28;20507;-65
2021/08/19 05:11:13;;;;;;;46.40;27.02;;;16.80;99.90;;;;;;5007700;28;20091;-66
2021/08/19 05:13:39;;;;;;;42.55;26.23;;;16.80;99.90;;;;;;5005381;28;20553;-66
2021/08/19 05:16:05;;;;;;;44.22;27.15;;;16.80;99.90;;;;;;5001397;28;20038;-66
2021/08/19 05:18:30;;;;;;;49.47;28.67;;;16.80;99.90;;;;;;5005896;28;20469;-66
2021/08/19 05:20:56;;;;;;;48.33;27.20;;;16.80;99.90;;;;;;5006489;28;20034;-66
2021/08/19 05:23:21;;;;;;;41.40;26.08;;;16.80;99.90;;;;;;5010321;28;20029;-65
2021/08/19 05:25:47;;;;;;;45.83;26.67;;;16.80;99.90;;;;;;4997199;28;20037;-66
2021/08/19 05:28:12;;;;;;;40.20;27.63;;;16.80;99.90;;;;;;5008333;28;20080;-66
2021/08/19 05:30:38;;;;;;;42.45;26.90;;;16.80;99.90;;;;;;5002398;28;20034;-66
2021/08/19 05:33:03;;;;;;;44.92;26.52;;;16.80;99.90;;;;;;5002955;28;20026;-66
2021/08/19 05:35:29;;;;;;;51.20;28.65;;;16.80;99.90;;;;;;4998238;28;20040;-66
2021/08/19 05:37:54;;;;;;;40.95;25.98;;;16.90;99.90;;;;;;5003627;28;20053;-66
2021/08/19 05:40:20;;;;;;;50.05;27.55;;;16.80;99.90;;;;;;5007678;28;20022;-66
2021/08/19 05:42:45;;;;;;;52.83;28.58;;;16.80;99.90;;;;;;5012824;28;20030;-66
2021/08/19 05:45:11;;;;;;;49.20;28.42;;;16.90;99.90;;;;;;5000912;28;20030;-65
2021/08/19 05:47:37;;;;;;;43.50;28.45;;;16.90;99.90;;;;;;4994071;28;20085;-67
2021/08/19 05:50:09;;;;;;;45.40;27.05;;;16.90;99.90;;;;;;5000576;28;20477;-66
2021/08/19 05:52:35;;;;;;;42.78;26.55;;;16.90;99.90;;;;;;5001376;28;20053;-66
2021/08/19 05:55:00;;;;;;;46.92;27.50;;;16.90;99.90;;;;;;5003680;28;20491;-66
2021/08/19 05:57:26;;;;;;;44.38;25.88;;;16.90;99.90;;;;;;5018902;28;20392;-67
2021/08/19 05:59:52;;;;;;;39.10;25.33;;;17.00;99.90;;;;;;5021484;28;20026;-67
2021/08/19 06:02:18;;;;;;;46.28;27.48;;;16.90;99.90;;;;;;5005012;28;20021;-66
2021/08/19 06:04:43;;;;;;;50.00;28.15;;;17.00;99.90;;;;;;5004552;28;20091;-66
2021/08/19 06:07:09;;;;;;;44.72;26.27;;;16.90;99.90;;;;;;5013159;28;20061;-66
2021/08/19 06:09:34;;;;;;;38.63;24.65;;;16.90;99.90;;;;;;4996191;28;20097;-66
2021/08/19 06:12:01;;;;;;;41.65;25.35;;;16.90;99.90;;;;;;4999187;28;20031;-67
2021/08/19 06:14:26;;;;;;;45.28;27.50;;;17.00;99.90;;;;;;5002383;28;20053;-67
2021/08/19 06:16:52;;;;;;;43.35;25.23;;;17.00;99.90;;;;;;5006253;28;20030;-67
2021/08/19 06:19:17;;;;;;;43.20;25.88;;;17.00;99.90;;;;;;5007658;28;20030;-67
2021/08/19 06:21:43;;;;;;;42.85;26.52;;;17.00;99.90;;;;;;4993436;28;20026;-67
2021/08/19 06:24:08;;;;;;;41.35;26.08;;;17.00;99.90;;;;;;5004435;28;20033;-67
2021/08/19 06:26:34;;;;;;;40.65;26.92;;;17.00;99.90;;;;;;5010959;28;20119;-66
2021/08/19 06:28:59;;;;;;;40.13;25.42;;;17.00;99.90;;;;;;5009768;28;20033;-67
2021/08/19 06:31:26;;;;;;;37.08;23.75;;;17.00;99.90;;;;;;5010719;28;20037;-67
2021/08/19 06:33:52;;;;;;;35.22;22.58;;;17.00;99.90;;;;;;5009221;28;20495;-67
2021/08/19 06:36:17;;;;;;;39.53;24.27;;;17.00;99.90;;;;;;5002105;28;20056;-66
2021/08/19 06:38:44;;;;;;;45.83;25.83;;;17.00;99.90;;;;;;5007805;28;20492;-68
2021/08/19 06:41:09;;;;;;;39.35;24.65;;;17.00;99.90;;;;;;5009934;28;20080;-66
2021/08/19 06:43:36;;;;;;;37.00;23.55;;;17.00;99.90;;;;;;5010420;28;20476;-68
2021/08/19 06:46:01;;;;;;;37.53;23.67;;;17.00;99.90;;;;;;5009418;28;20104;-66
2021/08/19 06:48:27;;;;;;;36.25;24.70;;;17.10;99.90;;;;;;5005007;28;20501;-67
2021/08/19 06:50:52;;;;;;;37.53;24.70;;;17.10;99.90;;;;;;5002178;28;20095;-67
2021/08/19 06:53:18;;;;;;;39.53;24.92;;;17.00;99.90;;;;;;5009199;28;20137;-67
2021/08/19 06:55:43;;;;;;;41.33;24.17;;;17.00;99.90;;;;;;5008548;28;20029;-67
2021/08/19 06:58:09;;;;;;;33.85;23.48;;;17.10;99.90;;;;;;5010378;28;20071;-67
2021/08/19 07:00:35;;;;;;;39.83;23.77;;;17.10;99.90;;;;;;5008645;28;20472;-67
2021/08/19 07:03:00;;;;;;;36.30;25.02;;;17.10;99.90;;;;;;5005205;28;20120;-67
2021/08/19 07:05:26;;;;;;;34.13;23.73;;;17.10;99.90;;;;;;5008826;28;20034;-67
2021/08/19 07:07:57;;;;;;;34.03;23.20;;;17.10;99.90;;;;;;4998359;28;20034;-67
2021/08/19 07:10:23;;;;;;;34.45;21.55;;;17.20;99.90;;;;;;5002604;28;20116;-67
2021/08/19 07:12:48;;;;;;;36.65;24.30;;;17.20;99.90;;;;;;5005313;28;20465;-67
2021/08/19 07:15:14;;;;;;;35.90;23.65;;;17.20;99.90;;;;;;5009022;28;20052;-67
2021/08/19 07:17:39;;;;;;;39.30;22.60;;;17.20;99.90;;;;;;5010376;28;20080;-67
2021/08/19 07:20:06;;;;;;;35.22;21.88;;;17.20;99.90;;;;;;5009307;28;20033;-67
2021/08/19 07:22:32;;;;;;;39.30;23.52;;;17.20;99.90;;;;;;5009434;28;20041;-67
2021/08/19 07:24:58;;;;;;;30.58;20.85;;;17.20;99.90;;;;;;5008923;28;20033;-67
2021/08/19 07:27:23;;;;;;;35.13;22.20;;;17.20;99.90;;;;;;5000255;28;20550;-65
2021/08/19 07:29:49;;;;;;;34.20;20.90;;;17.20;99.90;;;;;;5008043;28;20034;-66
2021/08/19 07:32:19;;;;;;;32.38;22.17;;;17.30;99.90;;;;;;5001173;28;20532;-66
2021/08/19 07:34:44;;;;;;;41.97;23.58;;;17.30;99.90;;;;;;5008922;28;20092;-66
2021/08/19 07:37:10;;;;;;;33.03;21.27;;;17.30;99.90;;;;;;5011964;28;20026;-66
2021/08/19 07:39:36;;;;;;;30.05;20.60;;;17.30;99.90;;;;;;5010533;28;20029;-66
2021/08/19 07:42:02;;;;;;;34.63;21.25;;;17.30;99.90;;;;;;5010278;28;20022;-66
2021/08/19 07:44:27;;;;;;;28.30;21.17;;;17.40;99.90;;;;;;5009575;28;20552;-65
2021/08/19 07:46:53;;;;;;;35.55;21.63;;;17.40;99.90;;;;;;5011282;28;20034;-66
2021/08/19 07:49:20;;;;;;;30.98;20.92;;;17.40;99.90;;;;;;5011333;28;20065;-66
2021/08/19 07:51:47;;;;;;;34.45;21.80;;;17.40;99.90;;;;;;5010598;28;20538;-67
2021/08/19 07:54:13;;;;;;;29.35;20.52;;;17.40;99.90;;;;;;5014166;28;20109;-66
2021/08/19 07:56:38;;;;;;;32.05;21.40;;;17.40;99.90;;;;;;5014213;28;20109;-67
2021/08/19 07:59:04;;;;;;;31.13;21.33;;;17.40;99.90;;;;;;5012783;28;20042;-66
2021/08/19 08:01:29;;;;;;;33.97;22.52;;;17.40;99.90;;;;;;5013481;28;20037;-66
2021/08/19 08:03:55;;;;;;;32.67;20.75;;;17.40;99.90;;;;;;5012246;28;20032;-67
2021/08/19 08:06:21;;;;;;;31.42;20.13;;;17.40;99.90;;;;;;5012261;28;20026;-67
2021/08/19 08:08:46;;;;;;;29.88;20.42;;;17.50;99.90;;;;;;5015391;28;20033;-66
2021/08/19 08:11:12;;;;;;;29.15;19.17;;;17.50;99.90;;;;;;5012854;28;20061;-66
2021/08/19 08:13:38;;;;;;;27.58;19.40;;;17.50;99.90;;;;;;5010886;28;20050;-66
2021/08/19 08:16:04;;;;;;;31.30;19.00;;;17.50;99.90;;;;;;5011816;28;20029;-66
2021/08/19 08:18:29;;;;;;;33.17;20.38;;;17.50;99.90;;;;;;5013370;28;20480;-67
2021/08/19 08:20:57;;;;;;;28.80;20.02;;;17.60;99.90;;;;;;5014187;28;20101;-67
2021/08/19 08:23:23;;;;;;;27.80;18.23;;;17.60;99.90;;;;;;5014194;28;20338;-66
2021/08/19 08:25:50;;;;;;;27.40;18.98;;;17.70;99.90;;;;;;5012347;28;20025;-66
2021/08/19 08:28:20;;;;;;;28.75;19.38;;;17.70;99.90;;;;;;5012869;28;20026;-66
2021/08/19 08:30:51;;;;;;;27.48;18.60;;;17.70;99.90;;;;;;5013679;28;20452;-66
2021/08/19 08:33:16;;;;;;;34.58;20.13;;;17.80;99.90;;;;;;5007296;28;20145;-66
2021/08/19 08:35:42;;;;;;;27.80;18.73;;;17.80;99.90;;;;;;5005973;28;20033;-66
2021/08/19 08:38:11;;;;;;;33.53;19.70;;;17.90;99.90;;;;;;5013953;28;20499;-66
2021/08/19 08:40:39;;;;;;;27.33;18.90;;;17.90;99.90;;;;;;5013954;28;20074;-67
2021/08/19 08:43:06;;;;;;;28.60;18.60;;;17.90;99.90;;;;;;5013756;28;20101;-66
2021/08/19 08:45:34;;;;;;;25.83;18.42;;;18.00;99.90;;;;;;5012609;28;20030;-66
2021/08/19 08:48:04;;;;;;;26.50;18.98;;;18.00;99.90;;;;;;5013163;28;20476;-66
2021/08/19 08:50:30;;;;;;;26.63;19.13;;;18.00;99.90;;;;;;5012770;28;20444;-67
2021/08/19 08:52:57;;;;;;;23.83;19.35;;;18.00;99.90;;;;;;5013677;28;20124;-67
2021/08/19 08:55:23;;;;;;;21.65;18.20;;;18.10;99.90;;;;;;5007793;28;20241;-66
2021/08/19 08:57:49;;;;;;;25.83;18.20;;;18.20;99.90;;;;;;5013399;28;20029;-66
2021/08/19 09:00:16;;;;;;;26.58;18.35;;;18.20;99.90;;;;;;5012321;28;20416;-67
2021/08/19 09:02:41;;;;;;;26.45;19.00;;;18.30;99.90;;;;;;5013664;28;20022;-66
2021/08/19 09:05:20;;;;;;;26.00;18.25;;;18.40;99.90;;;;;;5011007;28;20033;-66
2021/08/19 09:07:53;;;;;;;20.58;16.42;;;18.40;99.90;;;;;;4994787;28;20033;-66
2021/08/19 09:10:20;;;;;;;28.67;18.17;;;18.40;99.90;;;;;;5000385;28;20018;-67
2021/08/19 09:12:45;;;;;;;26.83;17.25;;;18.40;99.90;;;;;;5010593;28;20072;-66
2021/08/19 09:15:22;;;;;;;24.52;16.60;;;18.50;99.90;;;;;;5003385;28;20452;-67
2021/08/19 09:17:52;;;;;;;25.23;16.33;;;18.50;99.90;;;;;;5014195;28;20025;-66
2021/08/19 09:20:35;;;;;;;24.60;16.67;;;18.60;99.90;;;;;;5012782;28;20416;-66
2021/08/19 09:23:03;;;;;;;;;;;18.60;99.90;;;;;;5014453;28;20415;-66
2021/08/19 09:25:31;;;;;;;19.83;14.48;;;18.70;99.90;;;;;;5008779;28;19917;-66
2021/08/19 09:28:27;;;;;;;27.58;15.85;;;18.80;99.90;;;;;;5013960;28;20080;-66
2021/08/19 09:30:55;;;;;;;18.83;15.32;;;18.80;99.90;;;;;;5013904;28;20178;-67
2021/08/19 09:33:23;;;;;;;23.67;15.10;;;18.70;99.90;;;;;;5002222;28;20506;-66
2021/08/19 09:35:51;;;;;;;21.42;14.77;;;18.70;99.90;;;;;;5011632;28;20034;-67
2021/08/19 09:38:23;;;;;;;19.75;13.40;;;18.60;99.90;;;;;;5013226;28;20045;-67
2021/08/19 09:41:17;;;;;;;17.73;13.73;;;18.70;99.90;;;;;;5012007;28;20025;-66
2021/08/19 09:43:42;;;;;;;17.00;12.82;;;18.60;99.90;;;;;;5013568;28;20053;-65
2021/08/19 09:46:10;;;;;;;17.80;12.38;;;18.60;99.90;;;;;;5011514;28;20060;-66
2021/08/19 09:48:36;;;;;;;14.27;12.20;;;18.60;99.90;;;;;;5010948;28;20511;-65
2021/08/19 09:51:24;;;;;;;17.77;13.00;;;18.40;99.90;;;;;;5013552;28;20053;-65
2021/08/19 09:53:54;;;;;;;15.60;12.30;;;18.40;99.90;;;;;;5011772;28;20026;-67
2021/08/19 09:56:31;;;;;;;17.88;12.88;;;18.20;99.90;;;;;;5009751;28;20038;-67
2021/08/19 09:59:19;;;;;;;15.43;12.10;;;18.20;99.90;;;;;;5012903;28;20056;-67
2021/08/19 10:01:53;;;;;;;15.52;11.70;;;18.10;99.90;;;;;;5012665;28;20037;-66
2021/08/19 10:04:20;;;;;;;18.30;12.13;;;18.10;99.90;;;;;;5005697;28;20376;-67
2021/08/19 10:06:45;;;;;;;16.23;12.77;;;18.00;99.90;;;;;;5010440;28;20100;-66
2021/08/19 10:09:14;;;;;;;18.23;13.80;;;17.90;99.90;;;;;;5011264;28;20030;-66
2021/08/19 10:11:45;;;;;;;16.70;13.45;;;17.80;99.90;;;;;;5008942;28;20038;-66
2021/08/19 10:14:16;;;;;;;20.02;14.45;;;17.90;99.90;;;;;;5008021;28;20044;-66
2021/08/19 10:16:42;;;;;;;16.05;13.82;;;17.90;99.90;;;;;;5010207;28;20110;-66
2021/08/19 10:19:17;;;;;;;18.85;13.88;;;17.90;99.90;;;;;;5006436;28;20443;-66
2021/08/19 10:21:47;;;;;;;15.45;13.18;;;17.90;99.90;;;;;;4995126;28;20026;-66
2021/08/19 10:24:13;;;;;;;17.45;13.57;;;17.90;99.90;;;;;;5003140;28;20049;-66
2021/08/19 10:26:39;;;;;;;17.52;13.88;;;17.90;99.90;;;;;;5007380;28;20152;-66
2021/08/19 10:29:04;;;;;;;20.10;13.82;;;17.90;99.90;;;;;;5006859;28;20113;-65
2021/08/19 10:31:36;;;;;;;23.77;15.18;;;18.00;99.90;;;;;;5007467;28;20040;-66
2021/08/19 10:34:02;;;;;;;19.40;14.73;;;18.10;99.90;;;;;;5025057;28;20040;-65
2021/08/19 10:36:31;;;;;;;18.52;14.23;;;18.00;99.90;;;;;;5004358;28;20026;-66
2021/08/19 10:39:18;;;;;;;15.23;13.63;;;18.00;99.90;;;;;;5009309;28;20085;-66
2021/08/19 10:41:43;;;;;;;18.02;14.35;;;18.10;99.90;;;;;;4999423;28;20030;-66
2021/08/19 10:44:11;;;;;;;20.25;14.00;;;18.10;99.90;;;;;;5009043;28;20021;-67
2021/08/19 10:46:38;;;;;;;19.55;14.40;;;18.10;99.90;;;;;;5009738;28;20478;-66
2021/08/19 10:49:05;;;;;;;16.85;13.98;;;18.10;99.90;;;;;;5004877;28;20040;-67
2021/08/19 10:51:30;;;;;;;17.30;13.98;;;18.10;99.90;;;;;;5007967;28;20069;-66
2021/08/19 10:53:57;;;;;;;18.42;14.65;;;18.10;99.90;;;;;;5011890;28;20096;-66
2021/08/19 10:56:43;;;;;;;17.20;13.82;;;18.10;99.90;;;;;;5010003;28;20463;-67
2021/08/19 10:59:30;;;;;;;21.73;13.27;;;18.30;99.90;;;;;;5010263;28;20087;-67
2021/08/19 11:01:56;;;;;;;18.88;14.13;;;18.40;99.90;;;;;;5010130;28;20541;-66
2021/08/19 11:04:42;;;;;;;17.42;14.35;;;18.50;99.90;;;;;;5008096;28;20093;-67
2021/08/19 11:07:09;;;;;;;15.00;13.10;;;18.50;99.90;;;;;;5008787;28;20161;-66
2021/08/19 11:09:36;;;;;;;16.42;14.35;;;18.50;99.90;;;;;;5006271;28;20055;-68
2021/08/19 11:12:06;;;;;;;14.13;12.63;;;18.40;99.90;;;;;;4999294;28;20031;-67
2021/08/19 11:14:31;;;;;;;17.15;13.20;;;18.30;99.90;;;;;;5003610;28;20404;-66
2021/08/19 11:16:58;;;;;;;17.50;12.18;;;18.40;99.90;;;;;;5023159;28;20023;-66
2021/08/19 11:19:27;;;;;;;16.50;12.40;;;18.40;99.90;;;;;;5006345;28;20025;-67
2021/08/19 11:22:03;;;;;;;12.70;11.32;;;18.30;99.90;;;;;;5008220;28;20053;-67
2021/08/19 11:24:31;;;;;;;13.63;11.80;;;18.40;99.90;;;;;;5000659;28;20026;-67
2021/08/19 11:27:04;;;;;;;19.70;13.32;;;18.50;99.90;;;;;;4999957;28;20522;-66
2021/08/19 11:29:29;;;;;;;17.45;14.57;;;18.40;99.90;;;;;;4997662;28;20019;-66
2021/08/19 11:31:55;;;;;;;19.38;14.23;;;18.40;99.90;;;;;;5023805;28;20040;-67
2021/08/19 11:34:21;;;;;;;14.73;12.40;;;18.40;99.90;;;;;;5010513;28;20032;-67
2021/08/19 11:36:51;;;;;;;16.00;12.20;;;18.40;99.90;;;;;;5008755;28;20360;-67
2021/08/19 11:39:25;;;;;;;16.10;12.18;;;18.40;99.90;;;;;;5005242;28;20022;-67
2021/08/19 11:42:03;;;;;;;18.40;12.75;;;18.40;99.90;;;;;;4997907;28;20066;-67
2021/08/19 11:44:29;;;;;;;15.07;11.88;;;18.40;99.90;;;;;;5010399;28;20036;-67
2021/08/19 11:47:04;;;;;;;14.48;11.55;;;18.30;99.90;;;;;;5009375;28;20034;-67
2021/08/19 11:49:30;;;;;;;14.35;11.68;;;18.30;99.90;;;;;;5009257;28;20504;-67
2021/08/19 11:52:22;;;;;;;17.80;13.10;;;18.40;99.90;;;;;;5007488;28;20036;-66
2021/08/19 11:54:50;;;;;;;18.53;12.80;;;18.50;99.90;;;;;;5006002;28;20038;-66
2021/08/19 11:57:20;;;;;;;16.58;13.05;;;18.40;99.90;;;;;;5011391;28;20025;-67
2021/08/19 12:00:15;;;;;;;16.02;12.00;;;18.40;99.90;;;;;;5003477;28;20029;-66
2021/08/19 12:02:41;;;;;;;16.23;12.10;;;18.50;99.90;;;;;;5005490;28;20042;-65
2021/08/19 12:05:14;;;;;;;18.75;12.45;;;18.40;99.90;;;;;;5011883;28;20026;-66
2021/08/19 12:07:42;;;;;;;18.42;11.68;;;18.40;99.90;;;;;;5011700;28;20029;-67
2021/08/19 12:10:09;;;;;;;14.95;10.63;;;18.30;99.90;;;;;;5009831;28;20110;-67
2021/08/19 12:12:36;;;;;;;14.15;10.48;;;18.40;99.90;;;;;;5003071;28;20447;-67
2021/08/19 12:15:07;;;;;;;15.75;11.07;;;18.40;99.90;;;;;;5009348;28;20378;-67
2021/08/19 12:17:33;;;;;;;13.45;10.07;;;18.40;99.90;;;;;;5006990;28;20547;-67
2021/08/19 12:20:16;;;;;;;14.40;10.50;;;18.50;99.90;;;;;;5009572;28;20025;-66
2021/08/19 12:22:42;;;;;;;15.70;9.57;;;18.60;99.80;;;;;;5002104;28;20027;-66
2021/08/19 12:25:22;;;;;;;13.07;9.07;;;18.60;99.60;;;;;;4993531;28;20026;-66
2021/08/19 12:28:05;;;;;;;14.90;9.52;;;18.70;99.90;;;;;;5004464;28;20053;-66
2021/08/19 12:30:30;;;;;;;12.07;9.77;;;18.70;99.50;;;;;;5000406;28;20034;-66